createdAt,value
2022-10-18T00:00:20.473Z,25.20
2022-10-18T00:02:47.406Z,25.47
2022-10-18T00:05:14.398Z,26.40
2022-10-18T00:07:41.242Z,28.90
2022-10-18T00:10:08.947Z,23.20
2022-10-18T00:12:37.849Z,24.70
2022-10-18T00:15:07.039Z,23.35
2022-10-18T00:17:38.869Z,23.77
2022-10-18T00:20:07.047Z,21.30
2022-10-18T00:22:39.100Z,24.87
2022-10-18T00:25:07.650Z,24.93
2022-10-18T00:27:35.092Z,17.00
2022-10-18T00:30:01.903Z,15.63
2022-10-18T00:32:29.060Z,17.37
2022-10-18T00:34:56.177Z,19.77
2022-10-18T00:37:22.925Z,18.77
2022-10-18T00:39:50.296Z,18.27
2022-10-18T00:42:21.733Z,15.93
2022-10-18T00:44:51.543Z,13.80
2022-10-18T00:47:19.848Z,16.67
2022-10-18T00:49:51.768Z,14.73
2022-10-18T00:52:24.211Z,16.30
2022-10-18T00:54:52.586Z,16.30
2022-10-18T00:57:19.590Z,17.27
2022-10-18T00:59:47.181Z,15.63
2022-10-18T01:02:18.511Z,17.93
2022-10-18T01:04:46.536Z,15.13
2022-10-18T01:07:38.030Z,16.80
2022-10-18T01:10:30.666Z,17.03
2022-10-18T01:13:24.863Z,17.50
2022-10-18T01:16:07.645Z,19.43
2022-10-18T01:19:01.209Z,15.27
2022-10-18T01:21:48.605Z,13.67
2022-10-18T01:24:46.360Z,12.50
2022-10-18T01:27:34.866Z,21.73
2022-10-18T01:30:36.843Z,10.23
2022-10-18T01:33:25.081Z,12.13
2022-10-18T01:35:59.351Z,12.93
2022-10-18T01:38:27.505Z,12.80
2022-10-18T01:40:56.439Z,14.73
2022-10-18T01:43:25.035Z,11.82
2022-10-18T01:45:54.862Z,12.33
2022-10-18T01:48:24.151Z,11.13
2022-10-18T01:50:53.196Z,12.88
2022-10-18T01:53:32.826Z,11.85
2022-10-18T01:56:27.448Z,9.80
2022-10-18T01:59:11.950Z,13.30
2022-10-18T02:01:46.903Z,13.30
2022-10-18T02:04:37.705Z,11.50
2022-10-18T02:07:17.203Z,13.57
2022-10-18T02:09:52.756Z,12.80
2022-10-18T02:12:21.819Z,12.60
2022-10-18T02:14:50.641Z,15.07
2022-10-18T02:17:21.282Z,15.90
2022-10-18T02:19:52.535Z,10.93
2022-10-18T02:22:20.807Z,17.33
2022-10-18T02:24:52.250Z,11.43
2022-10-18T02:27:20.109Z,12.50
2022-10-18T02:29:47.957Z,13.63
2022-10-18T02:32:39.974Z,13.37
2022-10-18T02:35:39.237Z,14.40
2022-10-18T02:38:07.886Z,15.07
2022-10-18T02:40:34.894Z,13.38
2022-10-18T02:43:01.747Z,16.63
2022-10-18T02:45:29.029Z,17.80
2022-10-18T02:47:55.871Z,11.83
2022-10-18T02:50:22.778Z,15.73
2022-10-18T02:52:49.611Z,14.03
2022-10-18T02:55:16.823Z,13.03
2022-10-18T02:57:43.833Z,16.37
2022-10-18T03:00:11.255Z,15.67
2022-10-18T03:02:38.102Z,14.10
2022-10-18T03:05:05.214Z,13.77
2022-10-18T03:07:32.172Z,13.97
2022-10-18T03:09:59.131Z,17.30
2022-10-18T03:12:25.889Z,11.23
2022-10-18T03:14:52.733Z,12.97
2022-10-18T03:17:19.586Z,15.90
2022-10-18T03:19:46.385Z,11.03
2022-10-18T03:22:13.207Z,10.43
2022-10-18T03:24:40.045Z,14.53
2022-10-18T03:27:06.978Z,8.97
2022-10-18T03:29:33.716Z,13.80
2022-10-18T03:32:00.495Z,20.30
2022-10-18T03:34:27.292Z,15.63
2022-10-18T03:36:55.110Z,17.20
2022-10-18T03:39:21.917Z,16.70
2022-10-18T03:41:48.798Z,16.40
2022-10-18T03:44:15.554Z,11.53
2022-10-18T03:46:42.355Z,15.93
2022-10-18T03:49:09.119Z,15.03
2022-10-18T03:51:36.001Z,19.53
2022-10-18T03:54:02.900Z,15.03
2022-10-18T03:56:29.729Z,15.63
2022-10-18T03:58:57.303Z,18.20
2022-10-18T04:01:24.206Z,18.57
2022-10-18T04:03:51.052Z,19.47
2022-10-18T04:06:17.822Z,27.53
2022-10-18T04:08:44.622Z,40.63
2022-10-18T04:11:12.260Z,27.53
2022-10-18T04:13:39.323Z,14.00
2022-10-18T04:16:06.324Z,15.83
2022-10-18T04:18:33.179Z,13.30
2022-10-18T04:20:59.979Z,14.67
2022-10-18T04:23:26.763Z,17.27
2022-10-18T04:25:53.557Z,21.63
2022-10-18T04:28:20.370Z,20.33
2022-10-18T04:30:53.879Z,21.20
2022-10-18T04:33:20.745Z,22.67
2022-10-18T04:35:50.911Z,18.43
2022-10-18T04:38:17.725Z,21.93
2022-10-18T04:40:44.536Z,24.63
2022-10-18T04:43:11.364Z,19.07
2022-10-18T04:45:38.302Z,22.43
2022-10-18T04:48:05.304Z,21.43
2022-10-18T04:50:32.212Z,33.47
2022-10-18T04:52:59.215Z,41.93
2022-10-18T04:55:26.143Z,44.50
2022-10-18T04:57:53.774Z,43.73
2022-10-18T05:00:21.020Z,37.60
2022-10-18T05:02:47.825Z,37.67
2022-10-18T05:05:14.770Z,42.17
2022-10-18T05:07:41.841Z,38.00
2022-10-18T05:10:16.473Z,41.94
2022-10-18T05:12:43.992Z,46.67
2022-10-18T05:15:10.926Z,44.80
2022-10-18T05:17:37.760Z,65.20
2022-10-18T05:20:05.107Z,68.77
2022-10-18T05:22:32.317Z,64.63
2022-10-18T05:24:59.295Z,63.10
2022-10-18T05:27:26.144Z,54.37
2022-10-18T05:29:52.981Z,52.70
2022-10-18T05:32:19.930Z,54.27
2022-10-18T05:34:46.740Z,55.40
2022-10-18T05:37:13.973Z,40.10
2022-10-18T05:39:40.871Z,39.00
2022-10-18T05:42:08.865Z,40.90
2022-10-18T05:44:35.742Z,36.77
2022-10-18T05:47:02.563Z,37.40
2022-10-18T05:49:29.394Z,32.57
2022-10-18T05:51:56.299Z,36.30
2022-10-18T05:54:23.197Z,32.70
2022-10-18T05:56:49.972Z,28.73
2022-10-18T05:59:16.777Z,24.33
2022-10-18T06:01:44.091Z,21.97
2022-10-18T06:04:11.109Z,24.97
2022-10-18T06:06:39.265Z,26.10
2022-10-18T06:09:08.200Z,24.70
2022-10-18T06:11:37.052Z,26.70
2022-10-18T06:14:04.504Z,21.13
2022-10-18T06:16:32.546Z,20.70
2022-10-18T06:19:00.241Z,24.20
2022-10-18T06:21:27.557Z,23.10
2022-10-18T06:23:56.970Z,24.90
2022-10-18T06:26:24.606Z,25.45
2022-10-18T06:28:51.620Z,25.60
2022-10-18T06:31:21.413Z,24.70
2022-10-18T06:33:48.675Z,29.63
2022-10-18T06:36:22.414Z,27.23
2022-10-18T06:38:49.908Z,34.53
2022-10-18T06:41:18.185Z,32.80
2022-10-18T06:43:52.058Z,26.93
2022-10-18T06:46:19.919Z,36.13
2022-10-18T06:48:47.233Z,30.83
2022-10-18T06:51:15.380Z,30.17
2022-10-18T06:53:44.341Z,30.80
2022-10-18T06:56:15.570Z,29.03
2022-10-18T06:58:42.366Z,27.50
2022-10-18T07:01:12.891Z,24.63
2022-10-18T07:03:40.205Z,27.90
2022-10-18T07:06:11.409Z,24.70
2022-10-18T07:08:39.495Z,26.13
2022-10-18T07:11:07.807Z,21.37
2022-10-18T07:13:35.307Z,31.33
2022-10-18T07:16:14.096Z,26.17
2022-10-18T07:18:46.809Z,22.23
2022-10-18T07:23:49.479Z,23.13
2022-10-18T07:26:21.401Z,23.77
2022-10-18T07:28:51.625Z,23.00
2022-10-18T07:31:19.010Z,22.07
2022-10-18T07:33:45.935Z,18.73
2022-10-18T07:36:13.924Z,34.53
2022-10-18T07:38:41.415Z,24.13
2022-10-18T07:41:10.490Z,25.10
2022-10-18T07:43:37.439Z,25.45
2022-10-18T07:46:06.137Z,28.27
2022-10-18T07:48:33.303Z,26.23
2022-10-18T07:51:01.894Z,21.17
2022-10-18T07:53:29.879Z,23.63
2022-10-18T07:56:03.529Z,24.23
2022-10-18T07:58:34.687Z,21.93
2022-10-18T08:01:06.411Z,21.00
2022-10-18T08:03:33.741Z,19.27
2022-10-18T08:06:00.719Z,21.33
2022-10-18T08:08:28.536Z,22.15
2022-10-18T08:10:55.612Z,20.05
2022-10-18T08:13:22.562Z,21.30
2022-10-18T08:15:49.388Z,19.55
2022-10-18T08:18:16.277Z,21.65
2022-10-18T08:20:46.683Z,20.33
2022-10-18T08:23:13.470Z,22.27
2022-10-18T08:25:42.157Z,18.42
2022-10-18T08:28:09.116Z,22.30
2022-10-18T08:30:36.491Z,23.02
2022-10-18T08:33:04.233Z,21.92
2022-10-18T08:35:32.108Z,18.13
2022-10-18T08:37:59.517Z,22.98
2022-10-18T08:40:27.909Z,20.02
2022-10-18T08:43:07.275Z,20.48
2022-10-18T08:45:42.345Z,19.83
2022-10-18T08:48:21.981Z,20.92
2022-10-18T08:50:50.458Z,19.60
2022-10-18T08:53:39.285Z,19.13
2022-10-18T08:56:21.683Z,24.27
2022-10-18T08:58:48.835Z,18.83
2022-10-18T09:01:27.818Z,20.70
2022-10-18T09:04:15.492Z,19.00
2022-10-18T09:06:52.575Z,16.98
2022-10-18T09:09:41.139Z,17.95
2022-10-18T09:12:13.888Z,16.88
2022-10-18T09:14:49.819Z,19.45
2022-10-18T09:17:44.107Z,19.00
2022-10-18T09:20:24.929Z,17.33
2022-10-18T09:23:38.236Z,19.08
2022-10-18T09:26:16.226Z,19.05
2022-10-18T09:29:07.650Z,21.48
2022-10-18T09:31:50.310Z,23.85
2022-10-18T09:34:38.168Z,20.55
2022-10-18T09:37:05.382Z,18.05
2022-10-18T09:39:38.032Z,20.90
2022-10-18T09:42:26.691Z,21.27
2022-10-18T09:45:03.936Z,18.60
2022-10-18T09:47:41.581Z,15.02
2022-10-18T09:50:25.940Z,19.58
2022-10-18T09:53:26.584Z,14.82
2022-10-18T09:56:02.175Z,16.38
2022-10-18T09:58:44.736Z,14.00
2022-10-18T10:01:15.960Z,17.52
2022-10-18T10:03:43.110Z,13.73
2022-10-18T10:06:31.476Z,14.77
2022-10-18T10:09:14.810Z,14.98
2022-10-18T10:11:46.012Z,14.70
2022-10-18T10:17:07.449Z,14.32
2022-10-18T10:19:56.930Z,16.65
2022-10-18T10:22:39.100Z,15.55
2022-10-18T10:25:07.780Z,14.30
2022-10-18T10:27:44.177Z,15.60
2022-10-18T10:30:38.618Z,16.13
2022-10-18T10:33:06.643Z,11.13
2022-10-18T10:35:53.020Z,16.13
2022-10-18T10:38:29.460Z,9.80
2022-10-18T10:40:57.246Z,15.48
2022-10-18T10:46:10.679Z,11.05
2022-10-18T10:49:03.272Z,12.00
2022-10-18T10:51:40.905Z,9.95
2022-10-18T10:54:18.677Z,8.02
2022-10-18T10:56:54.684Z,8.73
2022-10-18T10:59:24.209Z,9.88
2022-10-18T11:02:20.777Z,9.38
2022-10-18T11:04:52.293Z,11.23
2022-10-18T11:07:36.710Z,9.50
2022-10-18T11:10:30.992Z,8.80
2022-10-18T11:13:27.106Z,9.30
2022-10-18T11:16:00.583Z,8.35
2022-10-18T11:18:34.112Z,10.40
2022-10-18T11:21:08.813Z,7.72
2022-10-18T11:23:38.558Z,4.47
2022-10-18T11:26:11.403Z,7.43
2022-10-18T11:29:16.904Z,4.53
2022-10-18T11:31:51.058Z,11.15
2022-10-18T11:34:43.524Z,5.18
2022-10-18T11:37:28.641Z,4.47
2022-10-18T11:40:29.376Z,9.50
2022-10-18T11:43:38.906Z,2.00
2022-10-18T11:46:11.929Z,4.78
2022-10-18T11:48:58.180Z,2.55
2022-10-18T11:51:56.073Z,5.95
2022-10-18T11:54:34.483Z,3.28
2022-10-18T11:57:42.832Z,3.67
2022-10-18T12:00:21.388Z,1.95
2022-10-18T12:05:23.947Z,6.15
2022-10-18T12:08:18.601Z,1.85
2022-10-18T12:11:06.700Z,1.73
2022-10-18T12:13:47.937Z,6.82
2022-10-18T12:16:16.923Z,2.15
2022-10-18T12:18:56.631Z,4.68
2022-10-18T12:21:26.719Z,1.73
2022-10-18T12:23:56.521Z,2.05
2022-10-18T12:26:26.153Z,1.73
2022-10-18T12:29:35.162Z,2.15
2022-10-18T12:32:06.040Z,2.25
2022-10-18T12:34:39.001Z,4.15
2022-10-18T12:37:17.681Z,2.13
2022-10-18T12:42:41.763Z,2.08
2022-10-18T12:45:33.457Z,2.00
2022-10-18T12:48:06.973Z,0.60
2022-10-18T12:50:38.405Z,0.93
2022-10-18T12:53:23.102Z,1.08
2022-10-18T12:55:52.041Z,0.68
2022-10-18T12:58:29.588Z,1.92
2022-10-18T13:00:58.403Z,3.72
2022-10-18T13:06:02.907Z,5.55
2022-10-18T13:08:38.470Z,1.05
2022-10-18T13:11:08.184Z,1.67
2022-10-18T13:13:56.819Z,2.72
2022-10-18T13:16:23.613Z,2.05
2022-10-18T13:19:10.198Z,2.58
2022-10-18T13:21:54.965Z,3.42
2022-10-18T13:24:35.683Z,0.85
2022-10-18T13:27:35.600Z,2.25
2022-10-18T13:30:03.328Z,3.90
2022-10-18T13:32:58.801Z,0.70
2022-10-18T13:35:46.338Z,4.30
2022-10-18T13:38:39.040Z,4.77
2022-10-18T13:41:09.339Z,2.80
2022-10-18T13:44:14.560Z,2.45
2022-10-18T13:46:47.960Z,3.17
2022-10-18T13:49:17.672Z,1.60
2022-10-18T13:51:53.647Z,1.55
2022-10-18T13:54:38.753Z,4.53
2022-10-18T13:57:23.905Z,1.60
2022-10-18T14:00:02.983Z,2.53
2022-10-18T14:03:27.134Z,0.70
2022-10-18T14:06:15.535Z,1.25
2022-10-18T14:08:44.781Z,1.23
2022-10-18T14:11:36.300Z,1.65
2022-10-18T14:14:30.120Z,1.85
2022-10-18T14:17:06.945Z,3.15
2022-10-18T14:19:56.789Z,2.60
2022-10-18T14:22:37.131Z,1.30
2022-10-18T14:25:04.325Z,6.10
2022-10-18T14:27:33.105Z,2.33
2022-10-18T14:30:20.777Z,2.33
2022-10-18T14:32:50.627Z,4.63
2022-10-18T14:35:39.169Z,2.47
2022-10-18T14:40:39.204Z,1.30
2022-10-18T14:43:12.365Z,3.15
2022-10-18T14:45:41.054Z,2.15
2022-10-18T14:50:49.610Z,1.75
2022-10-18T14:53:22.413Z,3.72
2022-10-18T14:56:01.392Z,5.75
2022-10-18T14:58:29.298Z,1.52
2022-10-18T15:00:58.931Z,4.55
2022-10-18T15:03:28.796Z,3.47
2022-10-18T15:06:00.361Z,3.15
2022-10-18T15:08:37.482Z,3.58
2022-10-18T15:11:06.112Z,2.85
2022-10-18T15:13:44.945Z,3.03
2022-10-18T15:16:21.330Z,8.32
2022-10-18T15:19:12.568Z,7.10
2022-10-18T15:22:30.919Z,4.97
2022-10-18T15:25:15.122Z,18.45
2022-10-18T15:27:48.214Z,9.80
2022-10-18T15:30:28.534Z,6.60
2022-10-18T15:33:02.266Z,5.28
2022-10-18T15:35:35.539Z,4.72
2022-10-18T15:38:27.667Z,5.63
2022-10-18T15:40:55.127Z,7.00
2022-10-18T15:43:24.807Z,6.78
2022-10-18T15:46:01.716Z,7.38
2022-10-18T15:48:40.658Z,11.40
2022-10-18T15:51:12.958Z,5.28
2022-10-18T15:53:51.496Z,6.15
2022-10-18T15:56:32.272Z,4.35
2022-10-18T15:59:20.788Z,4.55
2022-10-18T16:01:47.814Z,4.85
2022-10-18T16:04:23.262Z,5.60
2022-10-18T16:06:50.217Z,6.13
2022-10-18T16:09:19.529Z,10.88
2022-10-18T16:11:47.387Z,4.65
2022-10-18T16:14:14.305Z,5.47
2022-10-18T16:16:41.511Z,4.57
2022-10-18T16:19:10.343Z,6.63
2022-10-18T16:21:39.422Z,6.43
2022-10-18T16:24:06.688Z,6.03
2022-10-18T16:26:35.034Z,7.28
2022-10-18T16:29:02.056Z,7.15
2022-10-18T16:31:33.045Z,5.22
2022-10-18T16:34:00.836Z,7.03
2022-10-18T16:36:32.806Z,6.28
2022-10-18T16:39:04.703Z,6.20
2022-10-18T16:41:31.502Z,7.22
2022-10-18T16:43:58.386Z,9.00
2022-10-18T16:46:29.665Z,5.72
2022-10-18T16:48:57.359Z,8.00
2022-10-18T16:51:24.740Z,14.15
2022-10-18T16:53:53.603Z,12.07
2022-10-18T16:56:26.279Z,13.40
2022-10-18T16:58:53.197Z,24.85
2022-10-18T17:01:22.631Z,15.65
2022-10-18T17:03:52.275Z,21.52
2022-10-18T17:06:28.318Z,19.63
2022-10-18T17:08:56.871Z,16.38
2022-10-18T17:11:26.251Z,20.73
2022-10-18T17:13:53.294Z,20.30
2022-10-18T17:16:32.137Z,22.90
2022-10-18T17:19:01.609Z,19.02
2022-10-18T17:21:29.685Z,26.52
2022-10-18T17:24:00.654Z,22.38
2022-10-18T17:26:29.628Z,21.38
2022-10-18T17:29:03.986Z,24.02
2022-10-18T17:31:31.692Z,23.63
2022-10-18T17:34:01.793Z,23.65
2022-10-18T17:36:30.993Z,27.75
2022-10-18T17:38:58.390Z,26.02
2022-10-18T17:41:25.438Z,23.20
2022-10-18T17:43:52.305Z,84.03
2022-10-18T17:46:19.781Z,43.30
2022-10-18T17:48:47.147Z,50.40
2022-10-18T17:51:16.598Z,39.30
2022-10-18T17:53:43.942Z,45.67
2022-10-18T17:56:12.241Z,49.73
2022-10-18T17:58:39.317Z,38.97
2022-10-18T18:01:15.561Z,41.10
2022-10-18T18:03:42.941Z,39.13
2022-10-18T18:06:17.032Z,54.57
2022-10-18T18:08:44.896Z,34.87
2022-10-18T18:11:12.183Z,35.93
2022-10-18T18:13:39.297Z,33.20
2022-10-18T18:16:17.955Z,30.00
2022-10-18T18:18:47.144Z,32.45
2022-10-18T18:21:14.236Z,23.52
2022-10-18T18:23:41.632Z,25.47
2022-10-18T18:26:08.938Z,26.47
2022-10-18T18:28:36.602Z,21.57
2022-10-18T18:31:14.777Z,28.50
2022-10-18T18:33:42.365Z,22.30
2022-10-18T18:36:12.079Z,21.07
2022-10-18T18:38:42.947Z,23.00
2022-10-18T18:41:13.027Z,26.27
2022-10-18T18:43:42.488Z,20.30
2022-10-18T18:46:10.593Z,25.27
2022-10-18T18:48:37.889Z,27.87
2022-10-18T18:51:06.164Z,25.00
2022-10-18T18:53:33.055Z,27.73
2022-10-18T18:56:05.830Z,26.77
2022-10-18T18:58:34.884Z,30.40
2022-10-18T19:01:11.204Z,27.88
2022-10-18T19:03:40.974Z,28.60
2022-10-18T19:06:11.101Z,27.00
2022-10-18T19:08:40.064Z,29.17
2022-10-18T19:11:09.337Z,28.98
2022-10-18T19:13:36.721Z,24.13
2022-10-18T19:16:26.848Z,32.30
2022-10-18T19:18:55.322Z,41.37
2022-10-18T19:21:24.218Z,55.25
2022-10-18T19:23:51.574Z,53.78
2022-10-18T19:26:25.872Z,35.33
2022-10-18T19:28:52.857Z,36.23
2022-10-18T19:31:20.197Z,33.13
2022-10-18T19:33:58.962Z,36.50
2022-10-18T19:38:53.819Z,40.47
2022-10-18T19:41:21.614Z,37.77
2022-10-18T19:43:48.577Z,53.50
2022-10-18T19:46:15.510Z,34.40
2022-10-18T19:48:42.698Z,39.50
2022-10-18T19:51:17.381Z,26.97
2022-10-18T19:53:48.225Z,35.53
2022-10-18T19:56:21.053Z,31.37
2022-10-18T19:58:48.356Z,32.00
2022-10-18T20:01:16.454Z,28.33
2022-10-18T20:03:44.594Z,24.80
2022-10-18T20:06:11.647Z,21.87
2022-10-18T20:08:39.483Z,22.70
2022-10-18T20:11:10.281Z,23.60
2022-10-18T20:13:38.083Z,25.43
2022-10-18T20:16:07.425Z,26.63
2022-10-18T20:18:34.761Z,28.20
2022-10-18T20:21:05.839Z,21.97
2022-10-18T20:23:34.785Z,25.13
2022-10-18T20:26:04.756Z,20.25
2022-10-18T20:28:32.226Z,25.63
2022-10-18T20:31:11.375Z,20.80
2022-10-18T20:33:38.852Z,23.92
2022-10-18T20:36:17.617Z,20.67
2022-10-18T20:38:46.475Z,24.15
2022-10-18T20:41:24.865Z,32.65
2022-10-18T20:43:53.496Z,33.97
2022-10-18T20:46:21.297Z,26.38
2022-10-18T20:48:50.009Z,27.67
2022-10-18T20:51:19.759Z,22.50
2022-10-18T20:53:47.047Z,25.23
2022-10-18T20:56:20.540Z,26.67
2022-10-18T20:58:50.058Z,23.53
2022-10-18T21:03:47.031Z,23.93
2022-10-18T21:06:18.400Z,23.20
2022-10-18T21:08:46.123Z,31.93
2022-10-18T21:11:14.451Z,32.53
2022-10-18T21:13:41.449Z,36.17
2022-10-18T21:16:08.720Z,29.97
2022-10-18T21:18:37.151Z,34.17
2022-10-18T21:21:16.242Z,33.70
2022-10-18T21:23:44.028Z,33.17
2022-10-18T21:26:16.021Z,34.37
2022-10-18T21:28:44.248Z,35.67
2022-10-18T21:31:22.986Z,31.97
2022-10-18T21:33:54.492Z,34.60
2022-10-18T21:36:22.192Z,28.10
2022-10-18T21:38:50.269Z,34.27
2022-10-18T21:41:18.723Z,29.93
2022-10-18T21:43:53.460Z,31.47
2022-10-18T21:46:22.504Z,31.07
2022-10-18T21:48:53.716Z,24.38
2022-10-18T21:51:22.695Z,23.30
2022-10-18T21:53:51.933Z,29.98
2022-10-18T21:56:21.847Z,23.10
2022-10-18T21:58:49.153Z,25.57
2022-10-18T22:01:28.109Z,23.80
2022-10-18T22:03:57.013Z,20.63
2022-10-18T22:06:24.977Z,21.45
2022-10-18T22:08:54.840Z,24.37
2022-10-18T22:11:25.138Z,18.43
2022-10-18T22:13:53.093Z,23.37
2022-10-18T22:16:20.095Z,19.10
2022-10-18T22:18:48.700Z,18.43
2022-10-18T22:21:17.197Z,17.52
2022-10-18T22:23:49.504Z,16.30
2022-10-18T22:26:22.514Z,18.47
2022-10-18T22:28:59.107Z,18.37
2022-10-18T22:31:30.118Z,16.57
2022-10-18T22:33:59.260Z,19.17
2022-10-18T22:36:26.309Z,18.13
2022-10-18T22:38:53.843Z,18.07
2022-10-18T22:41:22.250Z,18.33
2022-10-18T22:43:52.563Z,19.63
2022-10-18T22:46:19.918Z,20.20
2022-10-18T22:48:47.349Z,19.43
2022-10-18T22:51:15.757Z,18.63
2022-10-18T22:53:42.631Z,13.63
2022-10-18T22:56:12.832Z,16.90
2022-10-18T22:58:39.688Z,15.07
2022-10-18T23:01:11.718Z,11.93
2022-10-18T23:03:39.266Z,16.10
2022-10-18T23:06:17.329Z,13.80
2022-10-18T23:08:44.180Z,13.67
2022-10-18T23:11:11.037Z,14.80
2022-10-18T23:13:39.586Z,14.60
2022-10-18T23:16:06.894Z,14.43
2022-10-18T23:18:34.055Z,16.13
2022-10-18T23:21:03.291Z,15.50
2022-10-18T23:23:34.848Z,17.98
2022-10-18T23:26:07.356Z,15.93
2022-10-18T23:28:38.453Z,14.13
2022-10-18T23:31:08.006Z,15.43
2022-10-18T23:36:02.310Z,15.70
2022-10-18T23:38:30.992Z,16.10
2022-10-18T23:40:58.347Z,13.65
2022-10-18T23:43:25.544Z,11.90
2022-10-18T23:45:52.381Z,12.87
2022-10-18T23:48:19.370Z,12.67
2022-10-18T23:50:46.314Z,12.60
2022-10-18T23:53:13.212Z,14.00
2022-10-18T23:55:39.988Z,12.27
2022-10-18T23:58:06.891Z,15.77
